Time;durP1;ratioP1;P1;durP2;ratioP2;P2;SDS_P1;SDS_P2;PMS_P1;PMS_P2;Temp;Humidity;BMP_temperature;BMP_pressure;BME280_temperature;BME280_humidity;BME280_pressure;Samples;Min_cycle;Max_cycle;Signal;HPM_P1;HPM_P2
2021/11/03 20:59:48;;;;;;;6.53;2.08;;;;;;;;;;5069569;28;20904;-46
2021/11/03 21:02:14;;;;;;;3.22;2.55;;;;;;;;;;5069466;28;20017;-47
2021/11/03 21:04:40;;;;;;;2.45;2.25;;;;;;;;;;5069191;28;20033;-46
2021/11/03 21:07:05;;;;;;;2.60;2.17;;;;;;;;;;5069507;28;20029;-46
2021/11/03 21:09:31;;;;;;;3.35;2.05;;;;;;;;;;5067388;28;20021;-46
2021/11/03 21:11:57;;;;;;;4.40;2.10;;;;;;;;;;5067184;28;20119;-46
2021/11/03 21:14:24;;;;;;;3.70;1.92;;;;;;;;;;5067175;28;20025;-46
2021/11/03 21:16:50;;;;;;;2.70;1.85;;;;;;;;;;5067166;28;20028;-46
2021/11/03 21:19:16;;;;;;;2.38;1.80;;;;;;;;;;5066912;28;20037;-46
2021/11/03 21:21:43;;;;;;;5.43;1.83;;;;;;;;;;5067647;28;20379;-46
2021/11/03 21:24:09;;;;;;;2.20;1.80;;;;;;;;;;5068594;28;20421;-47
2021/11/03 21:26:35;;;;;;;2.25;1.48;;;;;;;;;;5068856;28;20040;-46
2021/11/03 21:29:01;;;;;;;2.35;1.70;;;;;;;;;;5068832;28;20036;-47
2021/11/03 21:31:27;;;;;;;3.35;1.98;;;;;;;;;;5068991;28;20029;-47
2021/11/03 21:33:53;;;;;;;2.85;1.88;;;;;;;;;;5068792;28;20037;-47
2021/11/03 21:36:19;;;;;;;5.15;1.90;;;;;;;;;;5068562;28;20043;-48
2021/11/03 21:38:45;;;;;;;2.15;1.83;;;;;;;;;;5068727;28;20560;-48
2021/11/03 21:41:11;;;;;;;3.15;1.80;;;;;;;;;;5068831;28;20040;-48
2021/11/03 21:43:37;;;;;;;2.30;1.80;;;;;;;;;;5068427;28;20037;-47
2021/11/03 21:46:03;;;;;;;3.83;1.75;;;;;;;;;;5068716;28;20020;-48
2021/11/03 21:48:33;;;;;;;5.32;1.80;;;17.60;75.70;;;;;;5068682;28;20102;-47
2021/11/03 21:51:00;;;;;;;3.17;1.83;;;17.60;75.70;;;;;;5068483;28;20039;-44
2021/11/03 21:53:26;;;;;;;2.28;1.65;;;;;;;;;;5068782;28;20021;-49
2021/11/03 21:55:56;;;;;;;4.95;1.70;;;17.40;72.40;;;;;;5068232;28;20036;-48
2021/11/03 21:58:22;;;;;;;2.33;1.30;;;;;;;;;;5068089;28;20085;-48
2021/11/03 22:00:48;;;;;;;3.78;1.70;;;;;;;;;;5068086;28;20025;-48
2021/11/03 22:03:14;;;;;;;2.67;1.73;;;;;;;;;;5068341;28;20028;-47
2021/11/03 22:05:40;;;;;;;6.13;1.90;;;;;;;;;;5068289;28;20032;-46
2021/11/03 22:08:06;;;;;;;2.03;1.80;;;;;;;;;;5068381;28;20111;-46
2021/11/03 22:10:33;;;;;;;4.05;1.95;;;;;;;;;;5058371;28;20028;-43
2021/11/03 22:12:59;;;;;;;2.65;1.80;;;;;;;;;;5054865;28;20174;-43
2021/11/03 22:15:25;;;;;;;3.25;1.60;;;;;;;;;;5054827;28;20051;-44
2021/11/03 22:17:52;;;;;;;2.33;1.77;;;17.30;76.40;;;;;;5054630;28;20037;-44
2021/11/03 22:20:20;;;;;;;3.63;1.60;;;17.30;78.60;;;;;;5054969;28;20078;-44
2021/11/03 22:22:46;;;;;;;2.65;2.20;;;;;;;;;;5054573;28;20060;-44
2021/11/03 22:25:14;;;;;;;2.83;1.88;;;17.20;83.10;;;;;;5054850;28;20388;-44
2021/11/03 22:27:40;;;;;;;4.43;1.92;;;;;;;;;;5054660;28;20479;-47
2021/11/03 22:30:08;;;;;;;1.95;1.52;;;17.30;80.20;;;;;;5054766;28;20083;-43
2021/11/03 22:32:34;;;;;;;1.95;1.75;;;;;;;;;;5054676;28;20029;-43
2021/11/03 22:35:00;;;;;;;4.10;2.30;;;;;;;;;;5054366;28;20029;-43
2021/11/03 22:37:27;;;;;;;3.20;2.17;;;;;;;;;;5054375;28;20082;-44
2021/11/03 22:39:53;;;;;;;4.38;2.33;;;;;;;;;;5054250;28;20108;-44
2021/11/03 22:42:19;;;;;;;2.47;1.73;;;;;;;;;;5054469;28;20097;-43
2021/11/03 22:44:45;;;;;;;2.90;2.00;;;;;;;;;;5054447;28;20029;-43
2021/11/03 22:47:11;;;;;;;2.22;2.03;;;;;;;;;;5054134;28;20033;-43
2021/11/03 22:49:37;;;;;;;1.80;1.52;;;;;;;;;;5054208;28;20029;-44
2021/11/03 22:52:03;;;;;;;3.08;2.10;;;;;;;;;;5054036;28;20040;-43
2021/11/03 22:54:29;;;;;;;2.35;2.13;;;;;;;;;;5053977;28;20053;-43
2021/11/03 22:56:55;;;;;;;3.22;1.77;;;;;;;;;;5054166;28;20110;-43
2021/11/03 22:59:21;;;;;;;2.63;2.10;;;;;;;;;;5053684;28;20083;-43
2021/11/03 23:01:47;;;;;;;3.67;2.22;;;;;;;;;;5053889;28;20488;-44
2021/11/03 23:04:13;;;;;;;2.58;1.88;;;;;;;;;;5053917;28;20390;-44
2021/11/03 23:06:39;;;;;;;2.08;1.88;;;;;;;;;;5054209;28;20025;-44
2021/11/03 23:09:05;;;;;;;3.28;2.00;;;;;;;;;;5053770;28;20479;-43
2021/11/03 23:11:31;;;;;;;3.22;1.75;;;;;;;;;;5053755;28;20104;-44
2021/11/03 23:13:57;;;;;;;2.10;1.65;;;;;;;;;;5053890;28;20107;-43
2021/11/03 23:16:23;;;;;;;2.63;2.17;;;;;;;;;;5053687;28;20463;-43
2021/11/03 23:18:49;;;;;;;2.17;1.92;;;;;;;;;;5053552;28;20029;-44
2021/11/03 23:21:15;;;;;;;3.17;2.20;;;;;;;;;;5052563;28;20029;-44
2021/11/03 23:23:41;;;;;;;1.75;1.55;;;;;;;;;;5053490;28;20475;-43
2021/11/03 23:26:07;;;;;;;2.28;1.70;;;;;;;;;;5053442;28;20044;-43
2021/11/03 23:28:34;;;;;;;3.05;1.75;;;16.80;79.60;;;;;;5053677;28;20028;-43
2021/11/03 23:31:00;;;;;;;2.40;2.08;;;;;;;;;;5053239;28;20108;-44
2021/11/03 23:33:26;;;;;;;1.92;1.45;;;;;;;;;;5053331;28;20075;-44
2021/11/03 23:35:53;;;;;;;2.38;1.90;;;;;;;;;;5053246;28;20024;-43
2021/11/03 23:38:19;;;;;;;2.67;2.00;;;;;;;;;;5053443;28;20472;-43
2021/11/03 23:40:45;;;;;;;1.83;1.70;;;;;;;;;;5053183;28;20082;-44
2021/11/03 23:43:11;;;;;;;2.97;1.55;;;;;;;;;;5053214;28;20029;-46
2021/11/03 23:45:37;;;;;;;2.67;1.77;;;;;;;;;;5053108;28;20028;-46
2021/11/03 23:48:04;;;;;;;1.90;1.60;;;;;;;;;;5052952;28;20548;-46
2021/11/03 23:50:33;;;;;;;2.08;1.75;;;16.70;84.80;;;;;;5053253;28;20025;-47
2021/11/03 23:52:59;;;;;;;2.28;1.90;;;;;;;;;;5053269;28;20399;-47
2021/11/03 23:55:27;;;;;;;2.85;1.88;;;16.70;75.80;;;;;;5052859;28;20040;-48
2021/11/03 23:57:53;;;;;;;2.60;2.05;;;;;;;;;;5052798;28;20049;-46
